Houwa Maru — JL6394 — position and weather

sailwx.info

Track history (hours):
 
Tides and Currents Weather Stations Pressure Air Temp Water Temp Dewpoint Dewpoint Depression Visibility Wind Speed Wind Dir Waves Ship Positions

Houwa Maru

Last reported at 2018-Feb-13 02:02 UTC. Time now 2018-Feb-20 00:09 UTC.
Position N 33°54' E 135°00'.

Length 76 m.

Type: Ship. MMSI: 431500378.

Date/timePositionNaut miles runAvg speedWind from/ knotsBaromVisibWave heightAir tempDewpointWater temp
2018-Feb-13 02:02N 33°54' E 135°00'111.1
2018-Feb-13 01:55N 33°55' E 134°59'1311.0
2018-Feb-13 00:46N 34°04' E 134°49'1710.5
2018-Feb-12 23:09N 34°19' E 134°38'210.9
2018-Feb-12 23:00N 34°20' E 134°38'510.6
2018-Feb-12 22:30N 34°26' E 134°38'510.7
2018-Feb-12 22:00N 34°31' E 134°39'710.6
2018-Feb-12 21:21N 34°38' E 134°39'  
2018-Feb-10 16:43N 34°03' E 132°43'311.4
2018-Feb-10 16:30N 34°02' E 132°40'3310.4
2018-Feb-10 13:16N 33°46' E 132°05'1511.3
2018-Feb-10 11:58N 33°45' E 131°47'511.8
2018-Feb-10 11:30N 33°46' E 131°41'612.0
2018-Feb-10 11:00N 33°47' E 131°34'611.8
2018-Feb-10 10:30N 33°49' E 131°27'611.7
2018-Feb-10 10:00N 33°50' E 131°20'611.3
2018-Feb-10 09:30N 33°52' E 131°13'611.5
2018-Feb-10 09:00N 33°55' E 131°08'3 6.8
2018-Feb-10 08:30N 33°58' E 131°10'0 0.0
2018-Feb-10 08:00N 33°58' E 131°10'0 0.0
2018-Feb-10 07:30N 33°58' E 131°10'0 0.0
2018-Feb-10 07:00N 33°58' E 131°10'0 0.0
2018-Feb-10 06:30N 33°58' E 131°10'0 0.0
2018-Feb-10 06:00N 33°58' E 131°10'0 0.0
2018-Feb-10 05:30N 33°58' E 131°10'0 0.0
2018-Feb-10 05:00N 33°58' E 131°10'0 0.0
2018-Feb-10 04:30N 33°58' E 131°10'0 0.0
2018-Feb-10 04:00N 33°58' E 131°10'0 0.0
2018-Feb-10 03:30N 33°58' E 131°10'0 0.0
2018-Feb-10 03:00N 33°58' E 131°10'0 0.0
2018-Feb-10 02:30N 33°58' E 131°10'0 0.0
2018-Feb-10 02:00N 33°58' E 131°10'0 0.0
2018-Feb-10 01:30N 33°58' E 131°10'0 0.0
2018-Feb-10 01:00N 33°58' E 131°10'0 0.0
2018-Feb-10 00:30N 33°58' E 131°10'0 0.0
2018-Feb-10 00:00N 33°58' E 131°10'0 0.0
2018-Feb-09 23:30N 33°58' E 131°10'0 0.0
2018-Feb-09 22:57N 33°58' E 131°10'0 0.0
2018-Feb-09 22:45N 33°58' E 131°10'4 4.7
2018-Feb-09 22:00N 33°55' E 131°08'1110.7
2018-Feb-09 21:00N 33°51' E 131°20'510.5
2018-Feb-09 20:30N 33°50' E 131°26'5 0.2
2018-Feb-08 11:00N 33°45' E 131°28'611.7
2018-Feb-08 10:30N 33°47' E 131°21'611.9
2018-Feb-08 10:00N 33°50' E 131°14'611.8
2018-Feb-08 09:30N 33°53' E 131°09'4 8.8
2018-Feb-08 09:00N 33°57' E 131°09'1 0.2
2018-Feb-08 01:30N 33°58' E 131°10'0 0.0
2018-Feb-08 01:00N 33°58' E 131°10'0 0.0
2018-Feb-08 00:27N 33°58' E 131°10'0 0.0
2018-Feb-08 00:00N 33°58' E 131°10'0 0.0
2018-Feb-07 23:30N 33°58' E 131°10'0 0.0
2018-Feb-07 22:57N 33°58' E 131°10'0 0.0
2018-Feb-07 22:30N 33°58' E 131°10'3 5.9
2018-Feb-07 22:00N 33°56' E 131°08'4 8.7
2018-Feb-07 21:30N 33°53' E 131°12'25 0.7
2018-Feb-06 11:13N 33°46' E 131°41'2611.6
2018-Feb-06 09:00N 33°52' E 131°11'6 6.2
2018-Feb-06 07:59N 33°58' E 131°10'0 0.0
2018-Feb-06 07:29N 33°58' E 131°10'0 0.0
2018-Feb-06 06:55N 33°58' E 131°10'0 0.0
2018-Feb-06 06:28N 33°58' E 131°10'0 0.0
2018-Feb-06 05:58N 33°58' E 131°10'0 0.0
2018-Feb-06 05:28N 33°58' E 131°10'0 0.0
2018-Feb-06 04:58N 33°58' E 131°10'0 0.0
2018-Feb-06 04:29N 33°58' E 131°10'0 0.0
2018-Feb-06 03:55N 33°58' E 131°10'0 0.0
2018-Feb-06 03:28N 33°58' E 131°10'0 0.0
2018-Feb-06 02:55N 33°58' E 131°10'0 0.0
2018-Feb-06 02:28N 33°58' E 131°10'0 0.0
2018-Feb-06 01:58N 33°58' E 131°10'0 0.0
2018-Feb-06 01:28N 33°58' E 131°10'0 0.0
2018-Feb-06 00:58N 33°58' E 131°10'0 0.0
2018-Feb-06 00:28N 33°58' E 131°10'0 0.0
2018-Feb-05 23:59N 33°58' E 131°10'0 0.0
2018-Feb-05 23:29N 33°58' E 131°10'0 0.0
2018-Feb-05 22:59N 33°58' E 131°10'0 0.0
2018-Feb-05 22:25N 33°58' E 131°10'4 4.4
2018-Feb-05 21:30N 33°54' E 131°10'4 8.9
2018-Feb-05 21:00N 33°52' E 131°14'5 8.9
2018-Feb-05 20:29N 33°51' E 131°20'4 8.8
2018-Feb-05 20:00N 33°51' E 131°25'5 8.8
2018-Feb-05 19:29N 33°50' E 131°30'7 8.7
2018-Feb-05 18:40N 33°47' E 131°38'27 8.8
2018-Feb-05 15:39N 33°25' E 131°56'22 0.8
2018-Feb-04 11:45N 33°42' E 131°39'2 9.3
2018-Feb-04 11:29N 33°42' E 131°36'1611.0
2018-Feb-04 10:00N 33°48' E 131°18'1110.9
2018-Feb-04 09:00N 33°55' E 131°08'4 8.2
2018-Feb-04 08:29N 33°58' E 131°10'0 0.0
2018-Feb-04 07:59N 33°58' E 131°10'0 0.0
2018-Feb-04 07:29N 33°58' E 131°10'0 0.0
2018-Feb-04 06:59N 33°58' E 131°10'0 0.0
2018-Feb-04 06:29N 33°58' E 131°10'0 0.0
2018-Feb-04 05:59N 33°58' E 131°10'0 0.0
2018-Feb-04 05:29N 33°58' E 131°10'0 0.0
2018-Feb-04 04:59N 33°58' E 131°10'0 0.0
2018-Feb-04 04:29N 33°58' E 131°10'0 0.0
2018-Feb-04 03:59N 33°58' E 131°10'0 0.0
2018-Feb-04 03:29N 33°58' E 131°10'0 0.0
2018-Feb-04 02:59N 33°58' E 131°10'0 0.0
2018-Feb-04 02:29N 33°58' E 131°10'0 0.0
2018-Feb-04 01:59N 33°58' E 131°10'0 0.0
2018-Feb-04 01:29N 33°58' E 131°10'0 0.0
2018-Feb-04 00:59N 33°58' E 131°10'0 0.0
2018-Feb-04 00:29N 33°58' E 131°10'0 0.0
2018-Feb-03 23:59N 33°58' E 131°10'0 0.0
2018-Feb-03 23:29N 33°58' E 131°10'0 0.0
2018-Feb-03 22:59N 33°58' E 131°10'0 0.0
2018-Feb-03 22:29N 33°58' E 131°10'3 5.2
2018-Feb-03 22:00N 33°56' E 131°08'3 6.7
2018-Feb-03 21:30N 33°54' E 131°11'5 9.6
2018-Feb-03 21:00N 33°52' E 131°16'5 9.5
2018-Feb-03 20:29N 33°51' E 131°22'4 9.1
2018-Feb-03 20:00N 33°50' E 131°27'13 8.4
2018-Feb-03 18:29N 33°46' E 131°42'5 8.4
2018-Feb-03 17:56N 33°43' E 131°45'4 8.7
2018-Feb-03 17:29N 33°39' E 131°47'4 8.7
2018-Feb-03 16:59N 33°35' E 131°50'10 9.3
2018-Feb-03 15:52N 33°26' E 131°55'  
Track history (hours):
 
Tides and Currents Weather Stations Pressure Air Temp Water Temp Dewpoint Dewpoint Depression Visibility Wind Speed Wind Dir Waves Ship Positions

Houwa Maru

Last reported at 2018-Feb-13 02:02 UTC. Time now 2018-Feb-20 00:09 UTC.
Position N 33°54' E 135°00'.

Length 76 m.

Type: Ship. MMSI: 431500378.

Date/timePositionNaut miles runAvg speedWind from/ knotsBaromVisibWave heightAir tempDewpointWater temp
2018-Feb-13 02:02N 33°54' E 135°00'111.1
2018-Feb-13 01:55N 33°55' E 134°59'1311.0
2018-Feb-13 00:46N 34°04' E 134°49'1710.5
2018-Feb-12 23:09N 34°19' E 134°38'210.9
2018-Feb-12 23:00N 34°20' E 134°38'510.6
2018-Feb-12 22:30N 34°26' E 134°38'510.7
2018-Feb-12 22:00N 34°31' E 134°39'710.6
2018-Feb-12 21:21N 34°38' E 134°39'  
2018-Feb-10 16:43N 34°03' E 132°43'311.4
2018-Feb-10 16:30N 34°02' E 132°40'3310.4
2018-Feb-10 13:16N 33°46' E 132°05'1511.3
2018-Feb-10 11:58N 33°45' E 131°47'511.8
2018-Feb-10 11:30N 33°46' E 131°41'612.0
2018-Feb-10 11:00N 33°47' E 131°34'611.8
2018-Feb-10 10:30N 33°49' E 131°27'611.7
2018-Feb-10 10:00N 33°50' E 131°20'611.3
2018-Feb-10 09:30N 33°52' E 131°13'611.5
2018-Feb-10 09:00N 33°55' E 131°08'3 6.8
2018-Feb-10 08:30N 33°58' E 131°10'0 0.0
2018-Feb-10 08:00N 33°58' E 131°10'0 0.0
2018-Feb-10 07:30N 33°58' E 131°10'0 0.0
2018-Feb-10 07:00N 33°58' E 131°10'0 0.0
2018-Feb-10 06:30N 33°58' E 131°10'0 0.0
2018-Feb-10 06:00N 33°58' E 131°10'0 0.0
2018-Feb-10 05:30N 33°58' E 131°10'0 0.0
2018-Feb-10 05:00N 33°58' E 131°10'0 0.0
2018-Feb-10 04:30N 33°58' E 131°10'0 0.0
2018-Feb-10 04:00N 33°58' E 131°10'0 0.0
2018-Feb-10 03:30N 33°58' E 131°10'0 0.0
2018-Feb-10 03:00N 33°58' E 131°10'0 0.0
2018-Feb-10 02:30N 33°58' E 131°10'0 0.0
2018-Feb-10 02:00N 33°58' E 131°10'0 0.0
2018-Feb-10 01:30N 33°58' E 131°10'0 0.0
2018-Feb-10 01:00N 33°58' E 131°10'0 0.0
2018-Feb-10 00:30N 33°58' E 131°10'0 0.0
2018-Feb-10 00:00N 33°58' E 131°10'0 0.0
2018-Feb-09 23:30N 33°58' E 131°10'0 0.0
2018-Feb-09 22:57N 33°58' E 131°10'0 0.0
2018-Feb-09 22:45N 33°58' E 131°10'4 4.7
2018-Feb-09 22:00N 33°55' E 131°08'1110.7
2018-Feb-09 21:00N 33°51' E 131°20'510.5
2018-Feb-09 20:30N 33°50' E 131°26'5 0.2
2018-Feb-08 11:00N 33°45' E 131°28'611.7
2018-Feb-08 10:30N 33°47' E 131°21'611.9
2018-Feb-08 10:00N 33°50' E 131°14'611.8
2018-Feb-08 09:30N 33°53' E 131°09'4 8.8
2018-Feb-08 09:00N 33°57' E 131°09'1 0.2
2018-Feb-08 01:30N 33°58' E 131°10'0 0.0
2018-Feb-08 01:00N 33°58' E 131°10'0 0.0
2018-Feb-08 00:27N 33°58' E 131°10'0 0.0
2018-Feb-08 00:00N 33°58' E 131°10'0 0.0
2018-Feb-07 23:30N 33°58' E 131°10'0 0.0
2018-Feb-07 22:57N 33°58' E 131°10'0 0.0
2018-Feb-07 22:30N 33°58' E 131°10'3 5.9
2018-Feb-07 22:00N 33°56' E 131°08'4 8.7
2018-Feb-07 21:30N 33°53' E 131°12'25 0.7
2018-Feb-06 11:13N 33°46' E 131°41'2611.6
2018-Feb-06 09:00N 33°52' E 131°11'6 6.2
2018-Feb-06 07:59N 33°58' E 131°10'0 0.0
2018-Feb-06 07:29N 33°58' E 131°10'0 0.0
2018-Feb-06 06:55N 33°58' E 131°10'0 0.0
2018-Feb-06 06:28N 33°58' E 131°10'0 0.0
2018-Feb-06 05:58N 33°58' E 131°10'0 0.0
2018-Feb-06 05:28N 33°58' E 131°10'0 0.0
2018-Feb-06 04:58N 33°58' E 131°10'0 0.0
2018-Feb-06 04:29N 33°58' E 131°10'0 0.0
2018-Feb-06 03:55N 33°58' E 131°10'0 0.0
2018-Feb-06 03:28N 33°58' E 131°10'0 0.0
2018-Feb-06 02:55N 33°58' E 131°10'0 0.0
2018-Feb-06 02:28N 33°58' E 131°10'0 0.0
2018-Feb-06 01:58N 33°58' E 131°10'0 0.0
2018-Feb-06 01:28N 33°58' E 131°10'0 0.0
2018-Feb-06 00:58N 33°58' E 131°10'0 0.0
2018-Feb-06 00:28N 33°58' E 131°10'0 0.0
2018-Feb-05 23:59N 33°58' E 131°10'0 0.0
2018-Feb-05 23:29N 33°58' E 131°10'0 0.0
2018-Feb-05 22:59N 33°58' E 131°10'0 0.0
2018-Feb-05 22:25N 33°58' E 131°10'4 4.4
2018-Feb-05 21:30N 33°54' E 131°10'4 8.9
2018-Feb-05 21:00N 33°52' E 131°14'5 8.9
2018-Feb-05 20:29N 33°51' E 131°20'4 8.8
2018-Feb-05 20:00N 33°51' E 131°25'5 8.8
2018-Feb-05 19:29N 33°50' E 131°30'7 8.7
2018-Feb-05 18:40N 33°47' E 131°38'27 8.8
2018-Feb-05 15:39N 33°25' E 131°56'22 0.8
2018-Feb-04 11:45N 33°42' E 131°39'2 9.3
2018-Feb-04 11:29N 33°42' E 131°36'1611.0
2018-Feb-04 10:00N 33°48' E 131°18'1110.9
2018-Feb-04 09:00N 33°55' E 131°08'4 8.2
2018-Feb-04 08:29N 33°58' E 131°10'0 0.0
2018-Feb-04 07:59N 33°58' E 131°10'0 0.0
2018-Feb-04 07:29N 33°58' E 131°10'0 0.0
2018-Feb-04 06:59N 33°58' E 131°10'0 0.0
2018-Feb-04 06:29N 33°58' E 131°10'0 0.0
2018-Feb-04 05:59N 33°58' E 131°10'0 0.0
2018-Feb-04 05:29N 33°58' E 131°10'0 0.0
2018-Feb-04 04:59N 33°58' E 131°10'0 0.0
2018-Feb-04 04:29N 33°58' E 131°10'0 0.0
2018-Feb-04 03:59N 33°58' E 131°10'0 0.0
2018-Feb-04 03:29N 33°58' E 131°10'0 0.0
2018-Feb-04 02:59N 33°58' E 131°10'0 0.0
2018-Feb-04 02:29N 33°58' E 131°10'0 0.0
2018-Feb-04 01:59N 33°58' E 131°10'0 0.0
2018-Feb-04 01:29N 33°58' E 131°10'0 0.0
2018-Feb-04 00:59N 33°58' E 131°10'0 0.0
2018-Feb-04 00:29N 33°58' E 131°10'0 0.0
2018-Feb-03 23:59N 33°58' E 131°10'0 0.0
2018-Feb-03 23:29N 33°58' E 131°10'0 0.0
2018-Feb-03 22:59N 33°58' E 131°10'0 0.0
2018-Feb-03 22:29N 33°58' E 131°10'3 5.2
2018-Feb-03 22:00N 33°56' E 131°08'3 6.7
2018-Feb-03 21:30N 33°54' E 131°11'5 9.6
2018-Feb-03 21:00N 33°52' E 131°16'5 9.5
2018-Feb-03 20:29N 33°51' E 131°22'4 9.1
2018-Feb-03 20:00N 33°50' E 131°27'13 8.4
2018-Feb-03 18:29N 33°46' E 131°42'5 8.4
2018-Feb-03 17:56N 33°43' E 131°45'4 8.7
2018-Feb-03 17:29N 33°39' E 131°47'4 8.7
2018-Feb-03 16:59N 33°35' E 131°50'10 9.3
2018-Feb-03 15:52N 33°26' E 131°55'  

Dump ship's entire track history